sensor_id;sensor_type;location;lat;lon;timestamp;temperature;humidity
16901;DHT22;8567;52.540;6.434;2023-07-20T00:00:09;26.30;49.50
16901;DHT22;8567;52.540;6.434;2023-07-20T00:02:38;26.30;49.50
16901;DHT22;8567;52.540;6.434;2023-07-20T00:05:05;26.30;49.50
16901;DHT22;8567;52.540;6.434;2023-07-20T00:07:32;26.30;49.60
16901;DHT22;8567;52.540;6.434;2023-07-20T00:10:00;26.30;49.60
16901;DHT22;8567;52.540;6.434;2023-07-20T00:12:26;26.30;49.60
16901;DHT22;8567;52.540;6.434;2023-07-20T00:14:55;26.30;49.60
16901;DHT22;8567;52.540;6.434;2023-07-20T00:17:21;26.30;49.50
16901;DHT22;8567;52.540;6.434;2023-07-20T00:19:48;26.30;49.50
16901;DHT22;8567;52.540;6.434;2023-07-20T00:22:15;26.30;49.50
16901;DHT22;8567;52.540;6.434;2023-07-20T00:24:42;26.30;49.50
16901;DHT22;8567;52.540;6.434;2023-07-20T00:27:09;26.20;49.50
16901;DHT22;8567;52.540;6.434;2023-07-20T00:29:35;26.20;49.50
16901;DHT22;8567;52.540;6.434;2023-07-20T00:32:05;26.20;49.60
16901;DHT22;8567;52.540;6.434;2023-07-20T00:34:32;26.20;49.60
16901;DHT22;8567;52.540;6.434;2023-07-20T00:36:59;26.20;49.50
16901;DHT22;8567;52.540;6.434;2023-07-20T00:39:26;26.30;49.50
16901;DHT22;8567;52.540;6.434;2023-07-20T00:41:52;26.20;49.50
16901;DHT22;8567;52.540;6.434;2023-07-20T00:44:19;26.20;49.50
16901;DHT22;8567;52.540;6.434;2023-07-20T00:46:46;26.30;49.50
16901;DHT22;8567;52.540;6.434;2023-07-20T00:49:15;26.20;49.60
16901;DHT22;8567;52.540;6.434;2023-07-20T00:51:46;26.20;49.60
16901;DHT22;8567;52.540;6.434;2023-07-20T00:54:14;26.20;49.60
16901;DHT22;8567;52.540;6.434;2023-07-20T00:56:42;26.20;49.60
16901;DHT22;8567;52.540;6.434;2023-07-20T00:59:11;26.20;49.70
16901;DHT22;8567;52.540;6.434;2023-07-20T01:01:38;26.20;49.60
16901;DHT22;8567;52.540;6.434;2023-07-20T01:04:05;26.20;49.60
16901;DHT22;8567;52.540;6.434;2023-07-20T01:06:39;26.20;49.70
16901;DHT22;8567;52.540;6.434;2023-07-20T01:09:13;26.20;49.70
16901;DHT22;8567;52.540;6.434;2023-07-20T01:11:49;26.20;49.70
16901;DHT22;8567;52.540;6.434;2023-07-20T01:14:18;26.20;49.70
16901;DHT22;8567;52.540;6.434;2023-07-20T01:16:46;26.20;49.70
16901;DHT22;8567;52.540;6.434;2023-07-20T01:19:14;26.10;49.70
16901;DHT22;8567;52.540;6.434;2023-07-20T01:21:47;26.10;49.80
16901;DHT22;8567;52.540;6.434;2023-07-20T01:27:36;26.20;49.70
16901;DHT22;8567;52.540;6.434;2023-07-20T01:30:22;26.20;49.70
16901;DHT22;8567;52.540;6.434;2023-07-20T01:32:54;26.20;49.70
16901;DHT22;8567;52.540;6.434;2023-07-20T01:35:24;26.10;49.80
16901;DHT22;8567;52.540;6.434;2023-07-20T01:37:54;26.10;49.80
16901;DHT22;8567;52.540;6.434;2023-07-20T01:40:21;26.20;49.80
16901;DHT22;8567;52.540;6.434;2023-07-20T01:42:51;26.10;49.80
16901;DHT22;8567;52.540;6.434;2023-07-20T01:45:18;26.10;49.80
16901;DHT22;8567;52.540;6.434;2023-07-20T01:47:45;26.10;49.80
16901;DHT22;8567;52.540;6.434;2023-07-20T01:50:13;26.10;49.80
16901;DHT22;8567;52.540;6.434;2023-07-20T01:52:40;26.10;49.80
16901;DHT22;8567;52.540;6.434;2023-07-20T01:55:07;26.10;49.80
16901;DHT22;8567;52.540;6.434;2023-07-20T01:57:34;26.10;49.80
16901;DHT22;8567;52.540;6.434;2023-07-20T02:00:01;26.10;49.80
16901;DHT22;8567;52.540;6.434;2023-07-20T02:02:28;26.10;49.80
16901;DHT22;8567;52.540;6.434;2023-07-20T02:04:55;26.10;49.80
16901;DHT22;8567;52.540;6.434;2023-07-20T02:07:24;26.10;49.80
16901;DHT22;8567;52.540;6.434;2023-07-20T02:09:51;26.10;49.80
16901;DHT22;8567;52.540;6.434;2023-07-20T02:12:18;26.10;49.80
16901;DHT22;8567;52.540;6.434;2023-07-20T02:14:45;26.10;49.80
16901;DHT22;8567;52.540;6.434;2023-07-20T02:17:13;26.10;49.80
16901;DHT22;8567;52.540;6.434;2023-07-20T02:19:40;26.10;49.80
16901;DHT22;8567;52.540;6.434;2023-07-20T02:22:07;26.10;49.80
16901;DHT22;8567;52.540;6.434;2023-07-20T02:24:35;26.10;49.80
16901;DHT22;8567;52.540;6.434;2023-07-20T02:27:03;26.10;49.80
16901;DHT22;8567;52.540;6.434;2023-07-20T02:29:30;26.10;49.80
16901;DHT22;8567;52.540;6.434;2023-07-20T02:31:58;26.10;49.80
16901;DHT22;8567;52.540;6.434;2023-07-20T02:34:24;26.10;49.70
16901;DHT22;8567;52.540;6.434;2023-07-20T02:36:51;26.10;49.70
16901;DHT22;8567;52.540;6.434;2023-07-20T02:39:18;26.10;49.80
16901;DHT22;8567;52.540;6.434;2023-07-20T02:41:46;26.10;49.70
16901;DHT22;8567;52.540;6.434;2023-07-20T02:44:14;26.10;49.70
16901;DHT22;8567;52.540;6.434;2023-07-20T02:46:41;26.10;49.70
16901;DHT22;8567;52.540;6.434;2023-07-20T02:49:08;26.10;49.70
16901;DHT22;8567;52.540;6.434;2023-07-20T02:51:35;26.10;49.70
16901;DHT22;8567;52.540;6.434;2023-07-20T02:54:02;26.10;49.70
16901;DHT22;8567;52.540;6.434;2023-07-20T02:56:29;26.10;49.70
16901;DHT22;8567;52.540;6.434;2023-07-20T02:58:57;26.10;49.80
16901;DHT22;8567;52.540;6.434;2023-07-20T03:01:24;26.10;49.80
16901;DHT22;8567;52.540;6.434;2023-07-20T03:03:54;26.10;49.80
16901;DHT22;8567;52.540;6.434;2023-07-20T03:06:21;26.10;49.80
16901;DHT22;8567;52.540;6.434;2023-07-20T03:08:48;26.10;49.80
16901;DHT22;8567;52.540;6.434;2023-07-20T03:11:18;26.10;49.70
16901;DHT22;8567;52.540;6.434;2023-07-20T03:13:45;26.10;49.70
16901;DHT22;8567;52.540;6.434;2023-07-20T03:16:15;26.10;49.70
16901;DHT22;8567;52.540;6.434;2023-07-20T03:18:43;26.10;49.80
16901;DHT22;8567;52.540;6.434;2023-07-20T03:21:10;26.10;49.80
16901;DHT22;8567;52.540;6.434;2023-07-20T03:23:37;26.10;49.80
16901;DHT22;8567;52.540;6.434;2023-07-20T03:26:04;26.10;49.70
16901;DHT22;8567;52.540;6.434;2023-07-20T03:28:34;26.10;49.70
16901;DHT22;8567;52.540;6.434;2023-07-20T03:31:00;26.10;49.70
16901;DHT22;8567;52.540;6.434;2023-07-20T03:33:29;26.10;49.70
16901;DHT22;8567;52.540;6.434;2023-07-20T03:35:57;26.00;49.80
16901;DHT22;8567;52.540;6.434;2023-07-20T03:38:25;26.00;49.70
16901;DHT22;8567;52.540;6.434;2023-07-20T03:40:53;26.10;49.70
16901;DHT22;8567;52.540;6.434;2023-07-20T03:43:20;26.00;49.80
16901;DHT22;8567;52.540;6.434;2023-07-20T03:45:47;26.00;49.80
16901;DHT22;8567;52.540;6.434;2023-07-20T03:48:15;26.00;49.80
16901;DHT22;8567;52.540;6.434;2023-07-20T03:50:45;26.00;49.80
16901;DHT22;8567;52.540;6.434;2023-07-20T03:53:12;26.00;49.80
16901;DHT22;8567;52.540;6.434;2023-07-20T03:55:39;26.00;49.80
16901;DHT22;8567;52.540;6.434;2023-07-20T03:58:07;26.00;49.80
16901;DHT22;8567;52.540;6.434;2023-07-20T04:00:34;26.00;49.80
16901;DHT22;8567;52.540;6.434;2023-07-20T04:03:01;26.00;49.80
16901;DHT22;8567;52.540;6.434;2023-07-20T04:05:27;26.00;49.80
16901;DHT22;8567;52.540;6.434;2023-07-20T04:07:55;26.00;49.80
16901;DHT22;8567;52.540;6.434;2023-07-20T04:10:22;26.00;49.70
16901;DHT22;8567;52.540;6.434;2023-07-20T04:12:49;26.00;49.70
16901;DHT22;8567;52.540;6.434;2023-07-20T04:15:16;26.00;49.70
16901;DHT22;8567;52.540;6.434;2023-07-20T04:17:43;26.00;49.70
16901;DHT22;8567;52.540;6.434;2023-07-20T04:20:11;26.00;49.70
16901;DHT22;8567;52.540;6.434;2023-07-20T04:22:38;26.00;49.70
16901;DHT22;8567;52.540;6.434;2023-07-20T04:25:07;25.90;49.80
16901;DHT22;8567;52.540;6.434;2023-07-20T04:27:35;25.90;49.80
16901;DHT22;8567;52.540;6.434;2023-07-20T04:30:02;26.00;49.80
16901;DHT22;8567;52.540;6.434;2023-07-20T04:32:30;25.90;49.80
16901;DHT22;8567;52.540;6.434;2023-07-20T04:34:59;25.90;49.80
16901;DHT22;8567;52.540;6.434;2023-07-20T04:37:26;25.90;49.80
16901;DHT22;8567;52.540;6.434;2023-07-20T04:39:53;25.90;49.90
16901;DHT22;8567;52.540;6.434;2023-07-20T04:42:21;25.80;49.90
16901;DHT22;8567;52.540;6.434;2023-07-20T04:44:48;25.80;50.00
16901;DHT22;8567;52.540;6.434;2023-07-20T04:47:15;25.80;50.00
16901;DHT22;8567;52.540;6.434;2023-07-20T04:49:41;25.80;50.00
16901;DHT22;8567;52.540;6.434;2023-07-20T04:52:08;25.90;50.00
16901;DHT22;8567;52.540;6.434;2023-07-20T04:54:35;25.80;49.90
16901;DHT22;8567;52.540;6.434;2023-07-20T04:57:02;25.90;49.90
16901;DHT22;8567;52.540;6.434;2023-07-20T04:59:33;25.90;49.90
16901;DHT22;8567;52.540;6.434;2023-07-20T05:02:00;25.80;49.90
16901;DHT22;8567;52.540;6.434;2023-07-20T05:04:27;25.80;50.00
16901;DHT22;8567;52.540;6.434;2023-07-20T05:06:54;25.80;50.00
16901;DHT22;8567;52.540;6.434;2023-07-20T05:09:21;25.80;49.90
16901;DHT22;8567;52.540;6.434;2023-07-20T05:11:48;25.80;49.90
16901;DHT22;8567;52.540;6.434;2023-07-20T05:14:15;25.80;50.00
16901;DHT22;8567;52.540;6.434;2023-07-20T05:16:43;25.80;50.00
16901;DHT22;8567;52.540;6.434;2023-07-20T05:19:10;25.80;50.00
16901;DHT22;8567;52.540;6.434;2023-07-20T05:21:37;25.80;50.00
16901;DHT22;8567;52.540;6.434;2023-07-20T05:24:05;25.80;50.00
16901;DHT22;8567;52.540;6.434;2023-07-20T05:26:32;25.80;50.00
16901;DHT22;8567;52.540;6.434;2023-07-20T05:28:59;25.80;50.00
16901;DHT22;8567;52.540;6.434;2023-07-20T05:31:26;25.80;50.00
16901;DHT22;8567;52.540;6.434;2023-07-20T05:33:57;25.80;49.90
16901;DHT22;8567;52.540;6.434;2023-07-20T05:36:24;25.80;50.00
16901;DHT22;8567;52.540;6.434;2023-07-20T05:38:51;25.80;50.00
16901;DHT22;8567;52.540;6.434;2023-07-20T05:41:18;25.80;50.00
16901;DHT22;8567;52.540;6.434;2023-07-20T05:43:45;25.80;50.00
16901;DHT22;8567;52.540;6.434;2023-07-20T05:46:12;25.80;50.00
16901;DHT22;8567;52.540;6.434;2023-07-20T05:48:39;25.80;50.00
16901;DHT22;8567;52.540;6.434;2023-07-20T05:51:07;25.80;50.00
16901;DHT22;8567;52.540;6.434;2023-07-20T05:53:35;25.80;50.00
16901;DHT22;8567;52.540;6.434;2023-07-20T05:56:02;25.80;50.00
16901;DHT22;8567;52.540;6.434;2023-07-20T05:58:29;25.80;50.00
16901;DHT22;8567;52.540;6.434;2023-07-20T06:00:56;25.80;49.90
16901;DHT22;8567;52.540;6.434;2023-07-20T06:03:23;25.80;50.00
16901;DHT22;8567;52.540;6.434;2023-07-20T06:05:50;25.80;50.00
16901;DHT22;8567;52.540;6.434;2023-07-20T06:08:18;25.80;50.00
16901;DHT22;8567;52.540;6.434;2023-07-20T06:10:50;25.80;50.00
16901;DHT22;8567;52.540;6.434;2023-07-20T06:13:17;25.80;50.00
16901;DHT22;8567;52.540;6.434;2023-07-20T06:15:44;25.80;50.00
16901;DHT22;8567;52.540;6.434;2023-07-20T06:18:11;25.90;49.90
16901;DHT22;8567;52.540;6.434;2023-07-20T06:20:38;25.90;49.90
16901;DHT22;8567;52.540;6.434;2023-07-20T06:23:05;25.90;49.80
16901;DHT22;8567;52.540;6.434;2023-07-20T06:25:33;25.90;49.90
16901;DHT22;8567;52.540;6.434;2023-07-20T06:28:00;25.90;49.80
16901;DHT22;8567;52.540;6.434;2023-07-20T06:30:29;25.90;49.90
16901;DHT22;8567;52.540;6.434;2023-07-20T06:32:56;25.90;50.00
16901;DHT22;8567;52.540;6.434;2023-07-20T06:35:23;25.90;50.00
16901;DHT22;8567;52.540;6.434;2023-07-20T06:37:50;25.90;49.90
16901;DHT22;8567;52.540;6.434;2023-07-20T06:40:17;25.90;49.90
16901;DHT22;8567;52.540;6.434;2023-07-20T06:42:45;25.90;49.80
16901;DHT22;8567;52.540;6.434;2023-07-20T06:45:12;25.90;49.90
16901;DHT22;8567;52.540;6.434;2023-07-20T06:47:39;25.90;50.00
16901;DHT22;8567;52.540;6.434;2023-07-20T06:50:07;25.90;50.00
16901;DHT22;8567;52.540;6.434;2023-07-20T06:52:35;25.90;50.00
16901;DHT22;8567;52.540;6.434;2023-07-20T06:55:02;25.90;50.10
16901;DHT22;8567;52.540;6.434;2023-07-20T06:57:29;25.90;50.00
16901;DHT22;8567;52.540;6.434;2023-07-20T06:59:57;25.90;50.00
16901;DHT22;8567;52.540;6.434;2023-07-20T07:02:24;25.90;50.00
16901;DHT22;8567;52.540;6.434;2023-07-20T07:04:50;26.00;49.90
16901;DHT22;8567;52.540;6.434;2023-07-20T07:07:18;26.10;49.90
16901;DHT22;8567;52.540;6.434;2023-07-20T07:09:45;26.00;49.90
16901;DHT22;8567;52.540;6.434;2023-07-20T07:12:12;26.00;50.20
16901;DHT22;8567;52.540;6.434;2023-07-20T07:14:39;26.00;50.10
16901;DHT22;8567;52.540;6.434;2023-07-20T07:17:07;26.00;49.90
16901;DHT22;8567;52.540;6.434;2023-07-20T07:19:35;26.00;49.70
16901;DHT22;8567;52.540;6.434;2023-07-20T07:22:03;25.80;49.90
16901;DHT22;8567;52.540;6.434;2023-07-20T07:24:31;25.70;48.90
16901;DHT22;8567;52.540;6.434;2023-07-20T07:27:00;25.60;48.70
16901;DHT22;8567;52.540;6.434;2023-07-20T07:29:27;25.70;48.30
16901;DHT22;8567;52.540;6.434;2023-07-20T07:31:54;26.40;46.80
16901;DHT22;8567;52.540;6.434;2023-07-20T07:34:23;26.50;46.20
16901;DHT22;8567;52.540;6.434;2023-07-20T07:36:50;26.50;45.90
16901;DHT22;8567;52.540;6.434;2023-07-20T07:39:17;27.10;44.70
16901;DHT22;8567;52.540;6.434;2023-07-20T07:41:44;27.40;43.90
16901;DHT22;8567;52.540;6.434;2023-07-20T07:44:11;27.30;44.00
16901;DHT22;8567;52.540;6.434;2023-07-20T07:46:37;27.20;44.20
16901;DHT22;8567;52.540;6.434;2023-07-20T07:49:05;27.30;44.00
16901;DHT22;8567;52.540;6.434;2023-07-20T07:51:33;27.70;43.40
16901;DHT22;8567;52.540;6.434;2023-07-20T07:54:00;27.80;42.70
16901;DHT22;8567;52.540;6.434;2023-07-20T07:56:27;27.50;43.10
16901;DHT22;8567;52.540;6.434;2023-07-20T07:58:54;27.00;43.90
16901;DHT22;8567;52.540;6.434;2023-07-20T08:01:20;27.30;43.60
16901;DHT22;8567;52.540;6.434;2023-07-20T08:03:47;27.60;43.50
16901;DHT22;8567;52.540;6.434;2023-07-20T08:06:14;27.70;42.90
16901;DHT22;8567;52.540;6.434;2023-07-20T08:08:43;27.10;43.20
16901;DHT22;8567;52.540;6.434;2023-07-20T08:11:10;26.60;44.20
16901;DHT22;8567;52.540;6.434;2023-07-20T08:13:36;26.60;44.10
16901;DHT22;8567;52.540;6.434;2023-07-20T08:16:04;26.80;43.40
16901;DHT22;8567;52.540;6.434;2023-07-20T08:18:31;26.90;43.00
16901;DHT22;8567;52.540;6.434;2023-07-20T08:20:58;26.80;43.20
16901;DHT22;8567;52.540;6.434;2023-07-20T08:23:25;26.70;43.50
16901;DHT22;8567;52.540;6.434;2023-07-20T08:25:54;26.60;43.80
16901;DHT22;8567;52.540;6.434;2023-07-20T08:28:21;26.50;44.10
16901;DHT22;8567;52.540;6.434;2023-07-20T08:30:48;26.40;44.00
16901;DHT22;8567;52.540;6.434;2023-07-20T08:33:16;26.20;44.30
16901;DHT22;8567;52.540;6.434;2023-07-20T08:35:44;26.30;44.30
16901;DHT22;8567;52.540;6.434;2023-07-20T08:38:12;27.00;45.40
16901;DHT22;8567;52.540;6.434;2023-07-20T08:40:40;27.00;43.50
16901;DHT22;8567;52.540;6.434;2023-07-20T08:43:10;26.70;43.90
16901;DHT22;8567;52.540;6.434;2023-07-20T08:45:38;26.50;44.50
16901;DHT22;8567;52.540;6.434;2023-07-20T08:48:06;26.10;44.40
16901;DHT22;8567;52.540;6.434;2023-07-20T08:50:34;25.60;45.40
16901;DHT22;8567;52.540;6.434;2023-07-20T08:53:02;25.30;46.50
16901;DHT22;8567;52.540;6.434;2023-07-20T08:55:29;25.40;45.60
16901;DHT22;8567;52.540;6.434;2023-07-20T08:57:58;25.50;44.80
16901;DHT22;8567;52.540;6.434;2023-07-20T09:00:27;26.00;44.10
16901;DHT22;8567;52.540;6.434;2023-07-20T09:02:55;26.10;43.80
16901;DHT22;8567;52.540;6.434;2023-07-20T09:05:23;26.20;44.00
16901;DHT22;8567;52.540;6.434;2023-07-20T09:07:51;26.30;43.70
16901;DHT22;8567;52.540;6.434;2023-07-20T09:10:18;26.00;43.40
16901;DHT22;8567;52.540;6.434;2023-07-20T09:12:46;25.80;43.70
16901;DHT22;8567;52.540;6.434;2023-07-20T09:15:13;25.90;43.70
16901;DHT22;8567;52.540;6.434;2023-07-20T09:17:45;26.00;44.00
16901;DHT22;8567;52.540;6.434;2023-07-20T09:20:15;26.00;44.30
16901;DHT22;8567;52.540;6.434;2023-07-20T09:22:42;25.90;44.40
16901;DHT22;8567;52.540;6.434;2023-07-20T09:25:11;26.40;43.80
16901;DHT22;8567;52.540;6.434;2023-07-20T09:27:40;26.70;44.40
16901;DHT22;8567;52.540;6.434;2023-07-20T09:30:08;26.10;45.50
16901;DHT22;8567;52.540;6.434;2023-07-20T09:32:42;25.60;46.90
16901;DHT22;8567;52.540;6.434;2023-07-20T09:35:13;25.30;47.50
16901;DHT22;8567;52.540;6.434;2023-07-20T09:37:41;25.40;47.50
16901;DHT22;8567;52.540;6.434;2023-07-20T09:40:15;25.50;47.80
16901;DHT22;8567;52.540;6.434;2023-07-20T09:42:42;25.60;47.90
16901;DHT22;8567;52.540;6.434;2023-07-20T09:45:10;25.30;48.60
16901;DHT22;8567;52.540;6.434;2023-07-20T09:47:37;25.20;49.20
16901;DHT22;8567;52.540;6.434;2023-07-20T09:50:07;25.10;49.30
16901;DHT22;8567;52.540;6.434;2023-07-20T09:52:38;25.10;49.80
16901;DHT22;8567;52.540;6.434;2023-07-20T09:55:07;25.10;50.00
16901;DHT22;8567;52.540;6.434;2023-07-20T09:57:35;25.10;50.20
16901;DHT22;8567;52.540;6.434;2023-07-20T10:00:04;25.70;49.30
16901;DHT22;8567;52.540;6.434;2023-07-20T10:02:41;26.80;46.90
16901;DHT22;8567;52.540;6.434;2023-07-20T10:05:12;27.40;45.80
16901;DHT22;8567;52.540;6.434;2023-07-20T10:07:44;27.50;45.60
16901;DHT22;8567;52.540;6.434;2023-07-20T10:10:14;27.50;45.50
16901;DHT22;8567;52.540;6.434;2023-07-20T10:12:43;27.00;46.40
16901;DHT22;8567;52.540;6.434;2023-07-20T10:15:12;26.70;47.20
16901;DHT22;8567;52.540;6.434;2023-07-20T10:17:46;26.50;47.60
16901;DHT22;8567;52.540;6.434;2023-07-20T10:20:17;26.50;47.70
16901;DHT22;8567;52.540;6.434;2023-07-20T10:22:48;26.40;47.90
16901;DHT22;8567;52.540;6.434;2023-07-20T10:25:16;26.20;48.10
16901;DHT22;8567;52.540;6.434;2023-07-20T10:27:45;25.70;48.90
16901;DHT22;8567;52.540;6.434;2023-07-20T10:30:12;25.60;49.10
16901;DHT22;8567;52.540;6.434;2023-07-20T10:32:40;26.00;48.90
16901;DHT22;8567;52.540;6.434;2023-07-20T10:35:13;26.60;47.60
16901;DHT22;8567;52.540;6.434;2023-07-20T10:37:49;26.90;47.10
16901;DHT22;8567;52.540;6.434;2023-07-20T10:40:31;26.80;47.00
16901;DHT22;8567;52.540;6.434;2023-07-20T10:43:02;26.50;47.60
16901;DHT22;8567;52.540;6.434;2023-07-20T10:45:48;25.90;48.70
16901;DHT22;8567;52.540;6.434;2023-07-20T10:48:16;25.50;49.70
16901;DHT22;8567;52.540;6.434;2023-07-20T10:53:29;25.50;50.10
16901;DHT22;8567;52.540;6.434;2023-07-20T10:56:06;25.40;50.30
16901;DHT22;8567;52.540;6.434;2023-07-20T10:58:33;25.70;50.00
16901;DHT22;8567;52.540;6.434;2023-07-20T11:01:02;25.80;49.60
16901;DHT22;8567;52.540;6.434;2023-07-20T11:03:33;26.10;49.40
16901;DHT22;8567;52.540;6.434;2023-07-20T11:06:30;26.30;48.90
16901;DHT22;8567;52.540;6.434;2023-07-20T11:09:06;26.80;48.20
16901;DHT22;8567;52.540;6.434;2023-07-20T11:11:34;27.00;47.50
16901;DHT22;8567;52.540;6.434;2023-07-20T11:14:03;27.20;47.20
16901;DHT22;8567;52.540;6.434;2023-07-20T11:16:36;27.20;47.00
16901;DHT22;8567;52.540;6.434;2023-07-20T11:19:04;27.00;46.90
16901;DHT22;8567;52.540;6.434;2023-07-20T11:21:36;26.90;46.70
16901;DHT22;8567;52.540;6.434;2023-07-20T11:24:05;26.80;47.00
16901;DHT22;8567;52.540;6.434;2023-07-20T11:26:46;26.90;46.60
16901;DHT22;8567;52.540;6.434;2023-07-20T11:29:13;27.10;45.20
16901;DHT22;8567;52.540;6.434;2023-07-20T11:31:41;27.30;44.70
16901;DHT22;8567;52.540;6.434;2023-07-20T11:34:11;27.60;43.90
16901;DHT22;8567;52.540;6.434;2023-07-20T11:36:40;28.00;43.30
16901;DHT22;8567;52.540;6.434;2023-07-20T11:39:10;28.00;43.50
16901;DHT22;8567;52.540;6.434;2023-07-20T11:41:37;28.10;43.10
16901;DHT22;8567;52.540;6.434;2023-07-20T11:44:05;28.00;43.20
16901;DHT22;8567;52.540;6.434;2023-07-20T11:46:33;28.00;43.10
16901;DHT22;8567;52.540;6.434;2023-07-20T11:49:01;28.00;43.60
16901;DHT22;8567;52.540;6.434;2023-07-20T11:51:28;28.00;43.30
16901;DHT22;8567;52.540;6.434;2023-07-20T11:53:56;28.10;43.20
16901;DHT22;8567;52.540;6.434;2023-07-20T11:56:25;28.20;42.80
16901;DHT22;8567;52.540;6.434;2023-07-20T11:58:55;28.20;42.80
16901;DHT22;8567;52.540;6.434;2023-07-20T12:01:25;27.60;43.10
16901;DHT22;8567;52.540;6.434;2023-07-20T12:03:55;27.80;42.60
16901;DHT22;8567;52.540;6.434;2023-07-20T12:06:23;28.00;42.20
16901;DHT22;8567;52.540;6.434;2023-07-20T12:08:53;28.00;42.40
16901;DHT22;8567;52.540;6.434;2023-07-20T12:11:33;28.20;41.90
16901;DHT22;8567;52.540;6.434;2023-07-20T12:14:00;28.30;41.80
16901;DHT22;8567;52.540;6.434;2023-07-20T12:16:30;28.40;41.50
16901;DHT22;8567;52.540;6.434;2023-07-20T12:19:00;28.60;41.30
16901;DHT22;8567;52.540;6.434;2023-07-20T12:21:27;28.60;41.20
16901;DHT22;8567;52.540;6.434;2023-07-20T12:23:56;28.50;41.40
16901;DHT22;8567;52.540;6.434;2023-07-20T12:26:23;27.70;42.40
16901;DHT22;8567;52.540;6.434;2023-07-20T12:28:52;27.50;42.80
16901;DHT22;8567;52.540;6.434;2023-07-20T12:31:19;27.50;42.80
16901;DHT22;8567;52.540;6.434;2023-07-20T12:33:46;27.60;43.00
16901;DHT22;8567;52.540;6.434;2023-07-20T12:36:14;27.60;42.70
16901;DHT22;8567;52.540;6.434;2023-07-20T12:38:40;27.60;42.50
16901;DHT22;8567;52.540;6.434;2023-07-20T12:41:10;27.80;42.20
16901;DHT22;8567;52.540;6.434;2023-07-20T12:43:38;27.60;42.50
16901;DHT22;8567;52.540;6.434;2023-07-20T12:46:07;27.60;42.60
16901;DHT22;8567;52.540;6.434;2023-07-20T12:48:35;27.70;42.50
16901;DHT22;8567;52.540;6.434;2023-07-20T12:51:02;27.50;42.80
16901;DHT22;8567;52.540;6.434;2023-07-20T12:53:30;27.60;42.60
16901;DHT22;8567;52.540;6.434;2023-07-20T12:55:57;27.70;42.50
16901;DHT22;8567;52.540;6.434;2023-07-20T12:58:24;27.90;42.10
16901;DHT22;8567;52.540;6.434;2023-07-20T13:00:51;27.90;42.20
16901;DHT22;8567;52.540;6.434;2023-07-20T13:03:19;28.00;41.90
16901;DHT22;8567;52.540;6.434;2023-07-20T13:05:46;28.20;41.50
16901;DHT22;8567;52.540;6.434;2023-07-20T13:08:13;28.30;41.20
16901;DHT22;8567;52.540;6.434;2023-07-20T13:10:40;28.30;41.20
16901;DHT22;8567;52.540;6.434;2023-07-20T13:13:07;28.40;41.00
16901;DHT22;8567;52.540;6.434;2023-07-20T13:15:43;28.40;41.20
16901;DHT22;8567;52.540;6.434;2023-07-20T13:18:11;28.50;41.30
16901;DHT22;8567;52.540;6.434;2023-07-20T13:20:40;28.60;41.10
16901;DHT22;8567;52.540;6.434;2023-07-20T13:23:07;28.70;41.10
16901;DHT22;8567;52.540;6.434;2023-07-20T13:25:33;28.70;40.60
16901;DHT22;8567;52.540;6.434;2023-07-20T13:28:01;28.70;40.40
16901;DHT22;8567;52.540;6.434;2023-07-20T13:30:27;28.70;40.70
16901;DHT22;8567;52.540;6.434;2023-07-20T13:32:54;28.70;40.50
16901;DHT22;8567;52.540;6.434;2023-07-20T13:35:21;28.90;39.70
16901;DHT22;8567;52.540;6.434;2023-07-20T13:37:49;28.80;40.00
16901;DHT22;8567;52.540;6.434;2023-07-20T13:40:16;28.50;40.20
16901;DHT22;8567;52.540;6.434;2023-07-20T13:42:45;28.60;40.40
16901;DHT22;8567;52.540;6.434;2023-07-20T13:45:11;28.70;40.10
16901;DHT22;8567;52.540;6.434;2023-07-20T13:47:38;28.80;40.00
16901;DHT22;8567;52.540;6.434;2023-07-20T13:50:06;28.90;39.80
16901;DHT22;8567;52.540;6.434;2023-07-20T13:52:33;28.90;40.00
16901;DHT22;8567;52.540;6.434;2023-07-20T13:55:02;29.00;40.00
16901;DHT22;8567;52.540;6.434;2023-07-20T13:57:30;29.00;39.60
16901;DHT22;8567;52.540;6.434;2023-07-20T13:59:57;29.00;39.20
16901;DHT22;8567;52.540;6.434;2023-07-20T14:02:25;28.60;39.30
16901;DHT22;8567;52.540;6.434;2023-07-20T14:04:52;28.60;39.80
16901;DHT22;8567;52.540;6.434;2023-07-20T14:07:21;28.80;39.40
16901;DHT22;8567;52.540;6.434;2023-07-20T14:09:48;28.90;39.20
16901;DHT22;8567;52.540;6.434;2023-07-20T14:12:16;28.90;39.60
16901;DHT22;8567;52.540;6.434;2023-07-20T14:14:43;29.10;39.60
16901;DHT22;8567;52.540;6.434;2023-07-20T14:17:10;29.20;39.40
16901;DHT22;8567;52.540;6.434;2023-07-20T14:19:38;28.70;39.80
16901;DHT22;8567;52.540;6.434;2023-07-20T14:22:05;28.70;39.60
16901;DHT22;8567;52.540;6.434;2023-07-20T14:24:33;28.90;39.20
16901;DHT22;8567;52.540;6.434;2023-07-20T14:26:59;28.90;39.30
16901;DHT22;8567;52.540;6.434;2023-07-20T14:29:28;28.90;39.40
16901;DHT22;8567;52.540;6.434;2023-07-20T14:31:57;28.70;40.30
16901;DHT22;8567;52.540;6.434;2023-07-20T14:34:24;28.90;39.90
16901;DHT22;8567;52.540;6.434;2023-07-20T14:36:51;29.10;39.40
16901;DHT22;8567;52.540;6.434;2023-07-20T14:39:18;29.20;39.60
16901;DHT22;8567;52.540;6.434;2023-07-20T14:41:45;29.20;39.40
16901;DHT22;8567;52.540;6.434;2023-07-20T14:44:12;29.00;39.60
16901;DHT22;8567;52.540;6.434;2023-07-20T14:46:40;28.50;40.30
16901;DHT22;8567;52.540;6.434;2023-07-20T14:49:07;28.20;40.90
16901;DHT22;8567;52.540;6.434;2023-07-20T14:51:35;28.30;40.90
16901;DHT22;8567;52.540;6.434;2023-07-20T14:54:08;28.90;39.50
16901;DHT22;8567;52.540;6.434;2023-07-20T14:56:35;29.00;39.30
16901;DHT22;8567;52.540;6.434;2023-07-20T14:59:03;29.30;39.40
16901;DHT22;8567;52.540;6.434;2023-07-20T15:01:31;29.50;39.70
16901;DHT22;8567;52.540;6.434;2023-07-20T15:03:59;29.70;39.20
16901;DHT22;8567;52.540;6.434;2023-07-20T15:06:26;29.90;38.50
16901;DHT22;8567;52.540;6.434;2023-07-20T15:08:56;29.80;38.90
16901;DHT22;8567;52.540;6.434;2023-07-20T15:11:23;29.80;38.80
16901;DHT22;8567;52.540;6.434;2023-07-20T15:13:50;29.90;38.80
16901;DHT22;8567;52.540;6.434;2023-07-20T15:16:17;30.00;38.60
16901;DHT22;8567;52.540;6.434;2023-07-20T15:18:44;30.10;38.60
16901;DHT22;8567;52.540;6.434;2023-07-20T15:21:12;30.10;38.20
16901;DHT22;8567;52.540;6.434;2023-07-20T15:23:39;29.90;38.40
16901;DHT22;8567;52.540;6.434;2023-07-20T15:26:07;29.90;38.40
16901;DHT22;8567;52.540;6.434;2023-07-20T15:28:34;29.80;38.50
16901;DHT22;8567;52.540;6.434;2023-07-20T15:31:02;29.90;38.80
16901;DHT22;8567;52.540;6.434;2023-07-20T15:33:29;30.00;39.00
16901;DHT22;8567;52.540;6.434;2023-07-20T15:35:56;30.20;38.90
16901;DHT22;8567;52.540;6.434;2023-07-20T15:38:24;30.20;38.70
16901;DHT22;8567;52.540;6.434;2023-07-20T15:40:51;30.30;38.70
16901;DHT22;8567;52.540;6.434;2023-07-20T15:43:19;30.40;38.80
16901;DHT22;8567;52.540;6.434;2023-07-20T15:45:47;30.40;38.50
16901;DHT22;8567;52.540;6.434;2023-07-20T15:48:15;30.20;38.70
16901;DHT22;8567;52.540;6.434;2023-07-20T15:50:42;30.10;38.80
16901;DHT22;8567;52.540;6.434;2023-07-20T15:53:10;30.20;38.90
16901;DHT22;8567;52.540;6.434;2023-07-20T15:55:38;30.20;38.70